Terminal Aerodrome Forecast
Issued by NWS

Home | Current Version | Previous Version | Text Only | Print | Product List | Glossary On
Versions: 1 2 3 4 5 6 7 8 9 10 11 12 13 14 15 16
000
FTAK31 PAJN 181100
TAFAKT
TAF
PAKT 181137Z 1812/1912 16007KT P6SM VCSH SCT015 BKN030 OVC040
     FM181500 14010KT P6SM VCSH FEW015 BKN040 OVC070
     FM181900 14010G20KT P6SM SCT040 BKN080
     FM190200 15010G20KT P6SM BKN030 OVC050
     FM190600 18012G22KT P6SM -RA BKN025 OVC040 WS020/15035KT
      AMD LTD TO CLD VIS AND WIND 1812/1815=

USA.gov is the U.S. government's official web portal to all federal, state and local government web resources and services.